sensor_id;sensor_type;location;lat;lon;timestamp;pressure;altitude;pressure_sealevel;temperature
15360;BMP280;7779;49.596;11.070;2024-01-07T00:00:20;97677.03;;;8.60
15360;BMP280;7779;49.596;11.070;2024-01-07T00:02:46;97682.97;;;8.62
15360;BMP280;7779;49.596;11.070;2024-01-07T00:05:12;97682.09;;;8.61
15360;BMP280;7779;49.596;11.070;2024-01-07T00:07:37;97681.41;;;8.64
15360;BMP280;7779;49.596;11.070;2024-01-07T00:10:03;97677.28;;;8.64
15360;BMP280;7779;49.596;11.070;2024-01-07T00:12:30;97670.63;;;8.65
15360;BMP280;7779;49.596;11.070;2024-01-07T00:14:56;97679.00;;;8.65
15360;BMP280;7779;49.596;11.070;2024-01-07T00:17:23;97679.06;;;8.67
15360;BMP280;7779;49.596;11.070;2024-01-07T00:19:48;97672.38;;;8.66
15360;BMP280;7779;49.596;11.070;2024-01-07T00:22:14;97673.31;;;8.68
15360;BMP280;7779;49.596;11.070;2024-01-07T00:24:40;97680.72;;;8.66
15360;BMP280;7779;49.596;11.070;2024-01-07T00:27:05;97676.56;;;8.67
15360;BMP280;7779;49.596;11.070;2024-01-07T00:29:33;97675.72;;;8.66
15360;BMP280;7779;49.596;11.070;2024-01-07T00:32:00;97681.56;;;8.67
15360;BMP280;7779;49.596;11.070;2024-01-07T00:34:26;97680.78;;;8.68
15360;BMP280;7779;49.596;11.070;2024-01-07T00:36:51;97682.44;;;8.67
15360;BMP280;7779;49.596;11.070;2024-01-07T00:39:17;97679.94;;;8.67
15360;BMP280;7779;49.596;11.070;2024-01-07T00:41:43;97679.94;;;8.67
15360;BMP280;7779;49.596;11.070;2024-01-07T00:44:08;97687.44;;;8.67
15360;BMP280;7779;49.596;11.070;2024-01-07T00:46:34;97684.84;;;8.66
15360;BMP280;7779;49.596;11.070;2024-01-07T00:49:00;97680.72;;;8.66
15360;BMP280;7779;49.596;11.070;2024-01-07T00:51:25;97681.56;;;8.67
15360;BMP280;7779;49.596;11.070;2024-01-07T00:53:51;97683.28;;;8.68
15360;BMP280;7779;49.596;11.070;2024-01-07T00:56:17;97688.28;;;8.68
15360;BMP280;7779;49.596;11.070;2024-01-07T00:58:42;97692.47;;;8.69
15360;BMP280;7779;49.596;11.070;2024-01-07T01:01:08;97692.47;;;8.69
15360;BMP280;7779;49.596;11.070;2024-01-07T01:03:35;97694.97;;;8.69
15360;BMP280;7779;49.596;11.070;2024-01-07T01:06:00;97692.44;;;8.67
15360;BMP280;7779;49.596;11.070;2024-01-07T01:08:28;97694.84;;;8.66
15360;BMP280;7779;49.596;11.070;2024-01-07T01:10:53;97693.81;;;8.62
15360;BMP280;7779;49.596;11.070;2024-01-07T01:13:19;97696.22;;;8.61
15360;BMP280;7779;49.596;11.070;2024-01-07T01:15:45;97703.63;;;8.59
15360;BMP280;7779;49.596;11.070;2024-01-07T01:18:10;97701.03;;;8.58
15360;BMP280;7779;49.596;11.070;2024-01-07T01:20:36;97707.59;;;8.56
15360;BMP280;7779;49.596;11.070;2024-01-07T01:23:02;97703.41;;;8.55
15360;BMP280;7779;49.596;11.070;2024-01-07T01:25:27;97707.44;;;8.53
15360;BMP280;7779;49.596;11.070;2024-01-07T01:27:56;97706.50;;;8.51
15360;BMP280;7779;49.596;11.070;2024-01-07T01:30:21;97703.03;;;8.49
15360;BMP280;7779;49.596;11.070;2024-01-07T01:32:47;97709.59;;;8.47
15360;BMP280;7779;49.596;11.070;2024-01-07T01:35:13;97704.47;;;8.44
15360;BMP280;7779;49.596;11.070;2024-01-07T01:37:39;97716.00;;;8.42
15360;BMP280;7779;49.596;11.070;2024-01-07T01:40:05;97711.78;;;8.41
15360;BMP280;7779;49.596;11.070;2024-01-07T01:42:31;97714.97;;;8.39
15360;BMP280;7779;49.596;11.070;2024-01-07T01:44:57;97711.44;;;8.35
15360;BMP280;7779;49.596;11.070;2024-01-07T01:47:28;97714.72;;;8.34
15360;BMP280;7779;49.596;11.070;2024-01-07T01:49:54;97709.56;;;8.31
15360;BMP280;7779;49.596;11.070;2024-01-07T01:52:21;97720.31;;;8.30
15360;BMP280;7779;49.596;11.070;2024-01-07T01:54:47;97716.13;;;8.29
15360;BMP280;7779;49.596;11.070;2024-01-07T01:57:19;97722.63;;;8.27
15360;BMP280;7779;49.596;11.070;2024-01-07T01:59:46;97719.09;;;8.24
15360;BMP280;7779;49.596;11.070;2024-01-07T02:02:13;97722.50;;;8.24
15360;BMP280;7779;49.596;11.070;2024-01-07T02:04:39;97717.59;;;8.26
15360;BMP280;7779;49.596;11.070;2024-01-07T02:07:05;97720.13;;;8.27
15360;BMP280;7779;49.596;11.070;2024-01-07T02:09:32;97721.16;;;8.31
15360;BMP280;7779;49.596;11.070;2024-01-07T02:12:07;97723.66;;;8.31
15360;BMP280;7779;49.596;11.070;2024-01-07T02:14:38;97727.63;;;8.27
15360;BMP280;7779;49.596;11.070;2024-01-07T02:17:04;97713.34;;;8.25
15360;BMP280;7779;49.596;11.070;2024-01-07T02:19:30;97723.25;;;8.23
15360;BMP280;7779;49.596;11.070;2024-01-07T02:21:56;97718.13;;;8.20
15360;BMP280;7779;49.596;11.070;2024-01-07T02:24:22;97720.44;;;8.18
15360;BMP280;7779;49.596;11.070;2024-01-07T02:26:48;97716.06;;;8.14
15360;BMP280;7779;49.596;11.070;2024-01-07T02:29:14;97718.38;;;8.11
15360;BMP280;7779;49.596;11.070;2024-01-07T02:31:39;97724.69;;;8.06
15360;BMP280;7779;49.596;11.070;2024-01-07T02:34:05;97718.63;;;8.01
15360;BMP280;7779;49.596;11.070;2024-01-07T02:36:31;97726.78;;;7.98
15360;BMP280;7779;49.596;11.070;2024-01-07T02:38:56;97738.38;;;7.98
15360;BMP280;7779;49.596;11.070;2024-01-07T02:41:22;97745.03;;;7.97
15360;BMP280;7779;49.596;11.070;2024-01-07T02:43:51;97739.00;;;7.94
15360;BMP280;7779;49.596;11.070;2024-01-07T02:46:16;97744.00;;;7.94
15360;BMP280;7779;49.596;11.070;2024-01-07T02:48:42;97742.25;;;7.93
15360;BMP280;7779;49.596;11.070;2024-01-07T02:51:08;97742.25;;;7.93
15360;BMP280;7779;49.596;11.070;2024-01-07T02:53:34;97747.25;;;7.93
15360;BMP280;7779;49.596;11.070;2024-01-07T02:56:00;97749.72;;;7.93
15360;BMP280;7779;49.596;11.070;2024-01-07T02:58:25;97748.97;;;7.94
15360;BMP280;7779;49.596;11.070;2024-01-07T03:00:51;97749.91;;;7.96
15360;BMP280;7779;49.596;11.070;2024-01-07T03:03:17;97750.00;;;7.97
15360;BMP280;7779;49.596;11.070;2024-01-07T03:05:43;97749.13;;;7.97
15360;BMP280;7779;49.596;11.070;2024-01-07T03:08:08;97749.91;;;7.96
15360;BMP280;7779;49.596;11.070;2024-01-07T03:10:34;97750.69;;;7.95
15360;BMP280;7779;49.596;11.070;2024-01-07T03:13:00;97758.00;;;7.92
15360;BMP280;7779;49.596;11.070;2024-01-07T03:15:27;97758.75;;;7.91
15360;BMP280;7779;49.596;11.070;2024-01-07T03:17:52;97756.38;;;7.92
15360;BMP280;7779;49.596;11.070;2024-01-07T03:20:18;97757.22;;;7.93
15360;BMP280;7779;49.596;11.070;2024-01-07T03:22:44;97759.63;;;7.91
15360;BMP280;7779;49.596;11.070;2024-01-07T03:25:09;97762.91;;;7.90
15360;BMP280;7779;49.596;11.070;2024-01-07T03:27:35;97761.06;;;7.88
15360;BMP280;7779;49.596;11.070;2024-01-07T03:30:01;97768.50;;;7.86
15360;BMP280;7779;49.596;11.070;2024-01-07T03:32:27;97761.69;;;7.84
15360;BMP280;7779;49.596;11.070;2024-01-07T03:34:53;97763.22;;;7.82
15360;BMP280;7779;49.596;11.070;2024-01-07T03:37:19;97765.63;;;7.80
15360;BMP280;7779;49.596;11.070;2024-01-07T03:39:47;97765.38;;;7.76
15360;BMP280;7779;49.596;11.070;2024-01-07T03:42:12;97758.41;;;7.71
15360;BMP280;7779;49.596;11.070;2024-01-07T03:44:39;97772.34;;;7.67
15360;BMP280;7779;49.596;11.070;2024-01-07T03:47:06;97766.31;;;7.64
15360;BMP280;7779;49.596;11.070;2024-01-07T03:49:31;97773.53;;;7.59
15360;BMP280;7779;49.596;11.070;2024-01-07T03:51:57;97773.16;;;7.53
15360;BMP280;7779;49.596;11.070;2024-01-07T03:54:23;97779.69;;;7.51
15360;BMP280;7779;49.596;11.070;2024-01-07T03:56:48;97786.13;;;7.48
15360;BMP280;7779;49.596;11.070;2024-01-07T03:59:14;97781.84;;;7.45
15360;BMP280;7779;49.596;11.070;2024-01-07T04:01:40;97785.97;;;7.45
15360;BMP280;7779;49.596;11.070;2024-01-07T04:04:05;97787.47;;;7.43
15360;BMP280;7779;49.596;11.070;2024-01-07T04:06:32;97798.25;;;7.42
15360;BMP280;7779;49.596;11.070;2024-01-07T04:08:58;97801.41;;;7.39
15360;BMP280;7779;49.596;11.070;2024-01-07T04:11:23;97795.56;;;7.39
15360;BMP280;7779;49.596;11.070;2024-01-07T04:13:49;97800.44;;;7.38
15360;BMP280;7779;49.596;11.070;2024-01-07T04:16:21;97807.84;;;7.36
15360;BMP280;7779;49.596;11.070;2024-01-07T04:18:47;97803.53;;;7.34
15360;BMP280;7779;49.596;11.070;2024-01-07T04:21:13;97810.06;;;7.32
15360;BMP280;7779;49.596;11.070;2024-01-07T04:23:40;97806.63;;;7.30
15360;BMP280;7779;49.596;11.070;2024-01-07T04:26:09;97805.56;;;7.26
15360;BMP280;7779;49.596;11.070;2024-01-07T04:28:35;97816.38;;;7.27
15360;BMP280;7779;49.596;11.070;2024-01-07T04:31:01;97814.69;;;7.26
15360;BMP280;7779;49.596;11.070;2024-01-07T04:33:27;97817.94;;;7.25
15360;BMP280;7779;49.596;11.070;2024-01-07T04:35:52;97826.19;;;7.24
15360;BMP280;7779;49.596;11.070;2024-01-07T04:38:23;97830.22;;;7.22
15360;BMP280;7779;49.596;11.070;2024-01-07T04:40:49;97834.25;;;7.20
15360;BMP280;7779;49.596;11.070;2024-01-07T04:43:15;97837.31;;;7.16
15360;BMP280;7779;49.596;11.070;2024-01-07T04:45:40;97836.25;;;7.12
15360;BMP280;7779;49.596;11.070;2024-01-07T04:48:07;97842.59;;;7.07
15360;BMP280;7779;49.596;11.070;2024-01-07T04:50:32;97837.22;;;7.01
15360;BMP280;7779;49.596;11.070;2024-01-07T04:52:58;97847.88;;;6.99
15360;BMP280;7779;49.596;11.070;2024-01-07T04:55:24;97847.69;;;6.96
15360;BMP280;7779;49.596;11.070;2024-01-07T04:57:49;97850.75;;;6.92
15360;BMP280;7779;49.596;11.070;2024-01-07T05:00:16;97847.22;;;6.89
15360;BMP280;7779;49.596;11.070;2024-01-07T05:02:41;97861.09;;;6.85
15360;BMP280;7779;49.596;11.070;2024-01-07T05:05:10;97862.53;;;6.82
15360;BMP280;7779;49.596;11.070;2024-01-07T05:07:37;97873.06;;;6.78
15360;BMP280;7779;49.596;11.070;2024-01-07T05:10:04;97877.00;;;6.74
15360;BMP280;7779;49.596;11.070;2024-01-07T05:12:30;97873.38;;;6.69
15360;BMP280;7779;49.596;11.070;2024-01-07T05:14:55;97880.66;;;6.66
15360;BMP280;7779;49.596;11.070;2024-01-07T05:17:21;97885.41;;;6.63
15360;BMP280;7779;49.596;11.070;2024-01-07T05:19:47;97894.31;;;6.60
15360;BMP280;7779;49.596;11.070;2024-01-07T05:22:12;97881.81;;;6.59
15360;BMP280;7779;49.596;11.070;2024-01-07T05:24:38;97895.00;;;6.58
15360;BMP280;7779;49.596;11.070;2024-01-07T05:27:04;97900.53;;;6.54
15360;BMP280;7779;49.596;11.070;2024-01-07T05:29:30;97903.69;;;6.51
15360;BMP280;7779;49.596;11.070;2024-01-07T05:31:56;97910.19;;;6.49
15360;BMP280;7779;49.596;11.070;2024-01-07T05:34:21;97914.09;;;6.46
15360;BMP280;7779;49.596;11.070;2024-01-07T05:36:47;97905.69;;;6.44
15360;BMP280;7779;49.596;11.070;2024-01-07T05:39:13;97908.09;;;6.42
15360;BMP280;7779;49.596;11.070;2024-01-07T05:41:39;97911.22;;;6.40
15360;BMP280;7779;49.596;11.070;2024-01-07T05:44:07;97922.91;;;6.41
15360;BMP280;7779;49.596;11.070;2024-01-07T05:46:33;97923.56;;;6.38
15360;BMP280;7779;49.596;11.070;2024-01-07T05:48:59;97917.53;;;6.35
15360;BMP280;7779;49.596;11.070;2024-01-07T05:51:25;97921.84;;;6.37
15360;BMP280;7779;49.596;11.070;2024-01-07T05:53:50;97934.41;;;6.39
15360;BMP280;7779;49.596;11.070;2024-01-07T05:56:16;97930.38;;;6.41
15360;BMP280;7779;49.596;11.070;2024-01-07T05:58:42;97929.50;;;6.40
15360;BMP280;7779;49.596;11.070;2024-01-07T06:01:08;97928.00;;;6.42
15360;BMP280;7779;49.596;11.070;2024-01-07T06:03:34;97926.25;;;6.41
15360;BMP280;7779;49.596;11.070;2024-01-07T06:06:00;97925.31;;;6.39
15360;BMP280;7779;49.596;11.070;2024-01-07T06:08:29;97922.81;;;6.39
15360;BMP280;7779;49.596;11.070;2024-01-07T06:10:54;97930.19;;;6.38
15360;BMP280;7779;49.596;11.070;2024-01-07T06:13:20;97932.66;;;6.38
15360;BMP280;7779;49.596;11.070;2024-01-07T06:15:46;97935.03;;;6.36
15360;BMP280;7779;49.596;11.070;2024-01-07T06:18:11;97941.53;;;6.34
15360;BMP280;7779;49.596;11.070;2024-01-07T06:20:37;97939.84;;;6.33
15360;BMP280;7779;49.596;11.070;2024-01-07T06:23:03;97945.56;;;6.32
15360;BMP280;7779;49.596;11.070;2024-01-07T06:25:29;97948.81;;;6.31
15360;BMP280;7779;49.596;11.070;2024-01-07T06:27:55;97942.13;;;6.30
15360;BMP280;7779;49.596;11.070;2024-01-07T06:30:21;97949.47;;;6.29
15360;BMP280;7779;49.596;11.070;2024-01-07T06:32:47;97957.72;;;6.28
15360;BMP280;7779;49.596;11.070;2024-01-07T06:35:13;97947.56;;;6.25
15360;BMP280;7779;49.596;11.070;2024-01-07T06:37:39;97958.25;;;6.24
15360;BMP280;7779;49.596;11.070;2024-01-07T06:40:05;97940.66;;;6.21
15360;BMP280;7779;49.596;11.070;2024-01-07T06:42:31;97956.22;;;6.19
15360;BMP280;7779;49.596;11.070;2024-01-07T06:44:57;97952.88;;;6.18
15360;BMP280;7779;49.596;11.070;2024-01-07T06:47:22;97961.13;;;6.17
15360;BMP280;7779;49.596;11.070;2024-01-07T06:49:48;97962.63;;;6.15
15360;BMP280;7779;49.596;11.070;2024-01-07T06:52:14;97966.75;;;6.15
15360;BMP280;7779;49.596;11.070;2024-01-07T06:54:39;97956.69;;;6.13
15360;BMP280;7779;49.596;11.070;2024-01-07T06:57:05;97975.63;;;6.11
15360;BMP280;7779;49.596;11.070;2024-01-07T06:59:31;97966.44;;;6.10
15360;BMP280;7779;49.596;11.070;2024-01-07T07:01:56;97972.16;;;6.09
15360;BMP280;7779;49.596;11.070;2024-01-07T07:04:22;97979.41;;;6.06
15360;BMP280;7779;49.596;11.070;2024-01-07T07:06:48;97979.41;;;6.06
15360;BMP280;7779;49.596;11.070;2024-01-07T07:09:14;97984.38;;;6.06
15360;BMP280;7779;49.596;11.070;2024-01-07T07:11:41;97983.53;;;6.06
15360;BMP280;7779;49.596;11.070;2024-01-07T07:14:06;97978.56;;;6.06
15360;BMP280;7779;49.596;11.070;2024-01-07T07:16:32;97980.31;;;6.07
15360;BMP280;7779;49.596;11.070;2024-01-07T07:18:58;97989.47;;;6.08
15360;BMP280;7779;49.596;11.070;2024-01-07T07:21:23;97991.94;;;6.08
15360;BMP280;7779;49.596;11.070;2024-01-07T07:23:49;97996.06;;;6.07
15360;BMP280;7779;49.596;11.070;2024-01-07T07:26:15;97996.06;;;6.07
15360;BMP280;7779;49.596;11.070;2024-01-07T07:28:40;98001.03;;;6.07
15360;BMP280;7779;49.596;11.070;2024-01-07T07:31:06;98010.31;;;6.10
15360;BMP280;7779;49.596;11.070;2024-01-07T07:33:32;98004.50;;;6.09
15360;BMP280;7779;49.596;11.070;2024-01-07T07:35:57;98016.19;;;6.10
15360;BMP280;7779;49.596;11.070;2024-01-07T07:38:23;98017.72;;;6.08
15360;BMP280;7779;49.596;11.070;2024-01-07T07:40:49;98024.16;;;6.06
15360;BMP280;7779;49.596;11.070;2024-01-07T07:43:19;98025.69;;;6.04
15360;BMP280;7779;49.596;11.070;2024-01-07T07:45:46;98032.84;;;6.00
15360;BMP280;7779;49.596;11.070;2024-01-07T07:48:12;98033.41;;;5.96
15360;BMP280;7779;49.596;11.070;2024-01-07T07:50:38;98040.75;;;5.94
15360;BMP280;7779;49.596;11.070;2024-01-07T07:53:04;98043.91;;;5.92
15360;BMP280;7779;49.596;11.070;2024-01-07T07:55:29;98044.78;;;5.92
15360;BMP280;7779;49.596;11.070;2024-01-07T07:57:55;98047.25;;;5.92
15360;BMP280;7779;49.596;11.070;2024-01-07T08:00:21;98055.56;;;5.93
15360;BMP280;7779;49.596;11.070;2024-01-07T08:02:46;98054.06;;;5.95
15360;BMP280;7779;49.596;11.070;2024-01-07T08:05:12;98059.88;;;5.95
15360;BMP280;7779;49.596;11.070;2024-01-07T08:07:39;98061.63;;;5.96
15360;BMP280;7779;49.596;11.070;2024-01-07T08:10:06;98071.78;;;5.99
15360;BMP280;7779;49.596;11.070;2024-01-07T08:12:32;98078.47;;;6.00
15360;BMP280;7779;49.596;11.070;2024-01-07T08:14:57;98080.22;;;6.01
15360;BMP280;7779;49.596;11.070;2024-01-07T08:17:23;98088.63;;;6.03
15360;BMP280;7779;49.596;11.070;2024-01-07T08:19:49;98091.97;;;6.04
15360;BMP280;7779;49.596;11.070;2024-01-07T08:22:14;98085.38;;;6.04
15360;BMP280;7779;49.596;11.070;2024-01-07T08:24:40;98087.97;;;6.06
15360;BMP280;7779;49.596;11.070;2024-01-07T08:27:08;98087.22;;;6.07
15360;BMP280;7779;49.596;11.070;2024-01-07T08:29:34;98087.97;;;6.06
15360;BMP280;7779;49.596;11.070;2024-01-07T08:32:01;98085.38;;;6.04
15360;BMP280;7779;49.596;11.070;2024-01-07T08:34:26;98087.56;;;6.00
15360;BMP280;7779;49.596;11.070;2024-01-07T08:36:52;98098.06;;;5.96
15360;BMP280;7779;49.596;11.070;2024-01-07T08:39:19;98098.63;;;5.92
15360;BMP280;7779;49.596;11.070;2024-01-07T08:41:45;98105.72;;;5.87
15360;BMP280;7779;49.596;11.070;2024-01-07T08:44:11;98099.69;;;5.84
15360;BMP280;7779;49.596;11.070;2024-01-07T08:46:37;98115.25;;;5.82
15360;BMP280;7779;49.596;11.070;2024-01-07T08:49:03;98111.81;;;5.80
15360;BMP280;7779;49.596;11.070;2024-01-07T08:51:29;98122.38;;;5.77
15360;BMP280;7779;49.596;11.070;2024-01-07T08:53:55;98119.78;;;5.76
15360;BMP280;7779;49.596;11.070;2024-01-07T08:56:23;98116.31;;;5.74
15360;BMP280;7779;49.596;11.070;2024-01-07T08:58:48;98126.03;;;5.71
15360;BMP280;7779;49.596;11.070;2024-01-07T09:01:14;98125.81;;;5.68
15360;BMP280;7779;49.596;11.070;2024-01-07T09:03:40;98134.78;;;5.66
15360;BMP280;7779;49.596;11.070;2024-01-07T09:06:07;98137.94;;;5.63
15360;BMP280;7779;49.596;11.070;2024-01-07T09:08:33;98145.03;;;5.59
15360;BMP280;7779;49.596;11.070;2024-01-07T09:10:59;98141.47;;;5.55
15360;BMP280;7779;49.596;11.070;2024-01-07T09:13:26;98147.09;;;5.53
15360;BMP280;7779;49.596;11.070;2024-01-07T09:15:52;98145.34;;;5.52
15360;BMP280;7779;49.596;11.070;2024-01-07T09:18:18;98146.88;;;5.50
15360;BMP280;7779;49.596;11.070;2024-01-07T09:20:44;98149.34;;;5.50
15360;BMP280;7779;49.596;11.070;2024-01-07T09:23:10;98155.09;;;5.49
15360;BMP280;7779;49.596;11.070;2024-01-07T09:25:35;98161.56;;;5.47
15360;BMP280;7779;49.596;11.070;2024-01-07T09:28:01;98167.16;;;5.44
15360;BMP280;7779;49.596;11.070;2024-01-07T09:30:27;98163.59;;;5.41
15360;BMP280;7779;49.596;11.070;2024-01-07T09:32:52;98176.44;;;5.36
15360;BMP280;7779;49.596;11.070;2024-01-07T09:35:18;98184.31;;;5.30
15360;BMP280;7779;49.596;11.070;2024-01-07T09:37:44;98183.09;;;5.25
15360;BMP280;7779;49.596;11.070;2024-01-07T09:40:11;98182.03;;;5.22
15360;BMP280;7779;49.596;11.070;2024-01-07T09:42:37;98190.75;;;5.17
15360;BMP280;7779;49.596;11.070;2024-01-07T09:45:04;98192.03;;;5.12
15360;BMP280;7779;49.596;11.070;2024-01-07T09:47:32;98194.94;;;5.06
15360;BMP280;7779;49.596;11.070;2024-01-07T09:49:58;98199.16;;;5.07
15360;BMP280;7779;49.596;11.070;2024-01-07T09:52:25;98193.31;;;5.07
15360;BMP280;7779;49.596;11.070;2024-01-07T09:55:00;98198.41;;;5.08
15360;BMP280;7779;49.596;11.070;2024-01-07T09:57:26;98188.47;;;5.08
15360;BMP280;7779;49.596;11.070;2024-01-07T09:59:52;98194.41;;;5.10
15360;BMP280;7779;49.596;11.070;2024-01-07T10:02:19;98189.44;;;5.10
15360;BMP280;7779;49.596;11.070;2024-01-07T10:04:46;98204.34;;;5.10
15360;BMP280;7779;49.596;11.070;2024-01-07T10:07:14;98201.72;;;5.09
15360;BMP280;7779;49.596;11.070;2024-01-07T10:09:40;98200.25;;;5.11
15360;BMP280;7779;49.596;11.070;2024-01-07T10:12:10;98198.75;;;5.13
15360;BMP280;7779;49.596;11.070;2024-01-07T10:14:38;98206.09;;;5.11
15360;BMP280;7779;49.596;11.070;2024-01-07T10:17:16;98203.81;;;5.14
15360;BMP280;7779;49.596;11.070;2024-01-07T10:19:44;98197.88;;;5.12
15360;BMP280;7779;49.596;11.070;2024-01-07T10:22:13;98213.66;;;5.13
15360;BMP280;7779;49.596;11.070;2024-01-07T10:24:42;98187.84;;;5.11
15360;BMP280;7779;49.596;11.070;2024-01-07T10:27:09;98206.69;;;5.09
15360;BMP280;7779;49.596;11.070;2024-01-07T10:29:36;98207.22;;;5.05
15360;BMP280;7779;49.596;11.070;2024-01-07T10:32:03;98212.72;;;5.01
15360;BMP280;7779;49.596;11.070;2024-01-07T10:34:37;98209.16;;;4.98
15360;BMP280;7779;49.596;11.070;2024-01-07T10:37:04;98218.97;;;4.96
15360;BMP280;7779;49.596;11.070;2024-01-07T10:39:30;98223.06;;;4.96
15360;BMP280;7779;49.596;11.070;2024-01-07T10:41:57;98216.59;;;4.98
15360;BMP280;7779;49.596;11.070;2024-01-07T10:44:28;98210.13;;;5.00
15360;BMP280;7779;49.596;11.070;2024-01-07T10:46:54;98234.22;;;5.01
15360;BMP280;7779;49.596;11.070;2024-01-07T10:49:23;98230.75;;;4.99
15360;BMP280;7779;49.596;11.070;2024-01-07T10:52:06;98221.44;;;4.96
15360;BMP280;7779;49.596;11.070;2024-01-07T10:54:36;98222.75;;;4.91
15360;BMP280;7779;49.596;11.070;2024-01-07T11:00:07;98229.09;;;4.88
15360;BMP280;7779;49.596;11.070;2024-01-07T11:03:06;98222.50;;;4.88
15360;BMP280;7779;49.596;11.070;2024-01-07T11:06:00;98230.81;;;4.89
15360;BMP280;7779;49.596;11.070;2024-01-07T11:08:46;98236.41;;;4.86
15360;BMP280;7779;49.596;11.070;2024-01-07T11:11:40;98236.28;;;4.85
15360;BMP280;7779;49.596;11.070;2024-01-07T11:14:41;98233.81;;;4.85
15360;BMP280;7779;49.596;11.070;2024-01-07T11:17:11;98238.53;;;4.82
15360;BMP280;7779;49.596;11.070;2024-01-07T11:19:50;98231.84;;;4.81
15360;BMP280;7779;49.596;11.070;2024-01-07T11:22:26;98232.06;;;4.84
15360;BMP280;7779;49.596;11.070;2024-01-07T11:24:56;98233.06;;;4.86
15360;BMP280;7779;49.596;11.070;2024-01-07T11:27:29;98239.03;;;4.88
15360;BMP280;7779;49.596;11.070;2024-01-07T11:30:05;98232.31;;;4.87
15360;BMP280;7779;49.596;11.070;2024-01-07T11:32:34;98232.31;;;4.87
15360;BMP280;7779;49.596;11.070;2024-01-07T11:35:01;98230.59;;;4.86
15360;BMP280;7779;49.596;11.070;2024-01-07T11:37:28;98235.56;;;4.86
15360;BMP280;7779;49.596;11.070;2024-01-07T11:39:57;98232.44;;;4.88
15360;BMP280;7779;49.596;11.070;2024-01-07T11:42:24;98239.88;;;4.88
15360;BMP280;7779;49.596;11.070;2024-01-07T11:44:53;98236.63;;;4.89
15360;BMP280;7779;49.596;11.070;2024-01-07T11:47:20;98243.97;;;4.88
15360;BMP280;7779;49.596;11.070;2024-01-07T11:49:47;98236.53;;;4.88
15360;BMP280;7779;49.596;11.070;2024-01-07T11:52:13;98244.84;;;4.88
15360;BMP280;7779;49.596;11.070;2024-01-07T11:54:40;98238.13;;;4.87
15360;BMP280;7779;49.596;11.070;2024-01-07T11:57:07;98241.50;;;4.88
15360;BMP280;7779;49.596;11.070;2024-01-07T11:59:36;98239.88;;;4.88
15360;BMP280;7779;49.596;11.070;2024-01-07T12:02:03;98250.44;;;4.86
15360;BMP280;7779;49.596;11.070;2024-01-07T12:04:34;98250.31;;;4.84
15360;BMP280;7779;49.596;11.070;2024-01-07T12:07:01;98249.97;;;4.80
15360;BMP280;7779;49.596;11.070;2024-01-07T12:09:29;98248.00;;;4.76
15360;BMP280;7779;49.596;11.070;2024-01-07T12:11:54;98257.94;;;4.76
15360;BMP280;7779;49.596;11.070;2024-01-07T12:14:21;98257.69;;;4.73
15360;BMP280;7779;49.596;11.070;2024-01-07T12:16:46;98247.69;;;4.71
15360;BMP280;7779;49.596;11.070;2024-01-07T12:19:13;98256.94;;;4.74
15360;BMP280;7779;49.596;11.070;2024-01-07T12:21:38;98243.56;;;4.72
15360;BMP280;7779;49.596;11.070;2024-01-07T12:24:05;98250.25;;;4.73
15360;BMP280;7779;49.596;11.070;2024-01-07T12:26:31;98252.63;;;4.71
15360;BMP280;7779;49.596;11.070;2024-01-07T12:29:00;98247.69;;;4.71
15360;BMP280;7779;49.596;11.070;2024-01-07T12:31:31;98240.22;;;4.71
15360;BMP280;7779;49.596;11.070;2024-01-07T12:33:57;98244.31;;;4.71
15360;BMP280;7779;49.596;11.070;2024-01-07T12:36:24;98245.19;;;4.71
15360;BMP280;7779;49.596;11.070;2024-01-07T12:38:52;98255.84;;;4.70
15360;BMP280;7779;49.596;11.070;2024-01-07T12:41:21;98259.97;;;4.70
15360;BMP280;7779;49.596;11.070;2024-01-07T12:43:47;98264.03;;;4.69
15360;BMP280;7779;49.596;11.070;2024-01-07T12:46:12;98260.69;;;4.69
15360;BMP280;7779;49.596;11.070;2024-01-07T12:48:38;98265.66;;;4.69
15360;BMP280;7779;49.596;11.070;2024-01-07T12:51:04;98268.13;;;4.69
15360;BMP280;7779;49.596;11.070;2024-01-07T12:53:30;98259.97;;;4.70
15360;BMP280;7779;49.596;11.070;2024-01-07T12:55:56;98269.13;;;4.71
15360;BMP280;7779;49.596;11.070;2024-01-07T12:58:21;98270.88;;;4.72
15360;BMP280;7779;49.596;11.070;2024-01-07T13:00:47;98277.53;;;4.73
15360;BMP280;7779;49.596;11.070;2024-01-07T13:03:13;98278.44;;;4.73
15360;BMP280;7779;49.596;11.070;2024-01-07T13:05:43;98281.00;;;4.75
15360;BMP280;7779;49.596;11.070;2024-01-07T13:08:09;98285.97;;;4.75
15360;BMP280;7779;49.596;11.070;2024-01-07T13:10:35;98284.38;;;4.75
15360;BMP280;7779;49.596;11.070;2024-01-07T13:13:01;98287.72;;;4.76
15360;BMP280;7779;49.596;11.070;2024-01-07T13:15:26;98292.53;;;4.74
15360;BMP280;7779;49.596;11.070;2024-01-07T13:17:52;98296.78;;;4.75
15360;BMP280;7779;49.596;11.070;2024-01-07T13:20:18;98302.59;;;4.76
15360;BMP280;7779;49.596;11.070;2024-01-07T13:22:46;98296.66;;;4.74
15360;BMP280;7779;49.596;11.070;2024-01-07T13:25:12;98318.22;;;4.75
15360;BMP280;7779;49.596;11.070;2024-01-07T13:27:38;98302.34;;;4.73
15360;BMP280;7779;49.596;11.070;2024-01-07T13:30:05;98301.25;;;4.69
15360;BMP280;7779;49.596;11.070;2024-01-07T13:32:31;98307.72;;;4.67
15360;BMP280;7779;49.596;11.070;2024-01-07T13:35:06;98311.09;;;4.68
15360;BMP280;7779;49.596;11.070;2024-01-07T13:37:32;98316.03;;;4.68
15360;BMP280;7779;49.596;11.070;2024-01-07T13:39:58;98311.81;;;4.67
15360;BMP280;7779;49.596;11.070;2024-01-07T13:42:24;98322.00;;;4.70
15360;BMP280;7779;49.596;11.070;2024-01-07T13:44:49;98324.59;;;4.71
15360;BMP280;7779;49.596;11.070;2024-01-07T13:47:16;98320.50;;;4.72
15360;BMP280;7779;49.596;11.070;2024-01-07T13:49:43;98329.91;;;4.76
15360;BMP280;7779;49.596;11.070;2024-01-07T13:52:10;98329.16;;;4.77
15360;BMP280;7779;49.596;11.070;2024-01-07T13:54:36;98329.16;;;4.77
15360;BMP280;7779;49.596;11.070;2024-01-07T13:57:04;98330.63;;;4.75
15360;BMP280;7779;49.596;11.070;2024-01-07T13:59:29;98335.38;;;4.72
15360;BMP280;7779;49.596;11.070;2024-01-07T14:01:56;98338.47;;;4.69
15360;BMP280;7779;49.596;11.070;2024-01-07T14:04:23;98329.94;;;4.66
15360;BMP280;7779;49.596;11.070;2024-01-07T14:06:56;98334.66;;;4.63
15360;BMP280;7779;49.596;11.070;2024-01-07T14:09:22;98330.44;;;4.62
15360;BMP280;7779;49.596;11.070;2024-01-07T14:11:48;98342.09;;;4.63
15360;BMP280;7779;49.596;11.070;2024-01-07T14:14:14;98337.78;;;4.61
15360;BMP280;7779;49.596;11.070;2024-01-07T14:16:40;98342.63;;;4.59
15360;BMP280;7779;49.596;11.070;2024-01-07T14:19:06;98337.28;;;4.55
15360;BMP280;7779;49.596;11.070;2024-01-07T14:21:32;98347.97;;;4.54